All
Kane County Hospital Airport (Kanab, UT) UT02 Weather
There is no TAF data available at UT02 or any nearby airports.
There is no METAR data available at UT02. Showing METAR data for KKNB (3 mi S).
Recent KNB METAR history (no data for UT02)
| Date | Time (MDT) | Flight Rules | Wind Dir. | Speed | Type | Height AGL (ft) | Visibility | Temp (°C) | Temp (°F) | Dew Point (°C) | Dew Point (°F) | Rel. Humid. | Pressure | Density Altitude | Remarks |
|---|---|---|---|---|---|---|---|---|---|---|---|---|---|---|---|
| 06-Sep | 05:35AM | VFR | 360° | 7 kt | 10 miles | 15° | 59° | 5° | 41° | 51% | 30.17 in Hg | 5,567 ft | |||
| 06-Sep | 05:15AM | VFR | 10° | 6 kt | 10 miles | 14° | 57° | 5° | 41° | 55% | 30.17 in Hg | 5,447 ft | |||
| 06-Sep | 04:55AM | VFR | 20° | 5 kt | 10 miles | 14° | 57° | 5° | 41° | 55% | 30.17 in Hg | 5,447 ft | |||
| 06-Sep | 04:35AM | VFR | 30° | 5 kt | 10 miles | 14° | 57° | 5° | 41° | 55% | 30.17 in Hg | 5,447 ft | |||
| 06-Sep | 04:15AM | VFR | 30° | kt | 10 miles | 14° | 57° | 6° | 42° | 58% | 30.16 in Hg | 5,457 ft | |||
| 06-Sep | 03:55AM | VFR | 10° | kt | 10 miles | 15° | 59° | 7° | 44° | 59% | 30.16 in Hg | 5,577 ft | |||
| 06-Sep | 03:35AM | VFR | 50° | kt | 10 miles | 14° | 57° | 7° | 44° | 63% | 30.16 in Hg | 5,457 ft | |||
| 06-Sep | 03:15AM | VFR | 60° | 5 kt | 10 miles | 15° | 59° | 7° | 44° | 59% | 30.16 in Hg | 5,577 ft | |||
| 06-Sep | 02:55AM | VFR | 50° | kt | 10 miles | 13° | 55° | 7° | 44° | 67% | 30.16 in Hg | 5,337 ft | |||
| 06-Sep | 02:35AM | VFR | 60° | kt | 10 miles | 15° | 59° | 7° | 44° | 59% | 30.16 in Hg | 5,577 ft | |||
| 06-Sep | 02:15AM | VFR | 50° | kt | 10 miles | 15° | 59° | 7° | 44° | 59% | 30.16 in Hg | 5,577 ft | |||
| 06-Sep | 01:55AM | VFR | 70° | kt | 10 miles | 15° | 59° | 7° | 44° | 59% | 30.17 in Hg | 5,567 ft | |||
| 06-Sep | 01:35AM | VFR | 30° | kt | 10 miles | 16° | 60° | 7° | 44° | 55% | 30.17 in Hg | 5,687 ft | |||
| 06-Sep | 01:15AM | VFR | 30° | kt | 10 miles | 17° | 62° | 6° | 42° | 48% | 30.17 in Hg | 5,807 ft | |||
| 06-Sep | 12:55AM | VFR | 50° | kt | 10 miles | 16° | 60° | 6° | 42° | 51% | 30.17 in Hg | 5,687 ft | |||
| 06-Sep | 12:15AM | VFR | 10° | kt | 10 miles | 18° | 64° | 6° | 42° | 45% | 30.16 in Hg | 5,937 ft | |||
| 05-Sep | 11:55PM | VFR | 30° | kt | 10 miles | 19° | 66° | 6° | 42° | 43% | 30.16 in Hg | 6,057 ft | |||
| 05-Sep | 11:35PM | VFR | 140° | 6 kt | 10 miles | 19° | 66° | 7° | 44° | 46% | 30.16 in Hg | 6,057 ft | |||
| 05-Sep | 11:15PM | VFR | 190° | 6 kt | 10 miles | 21° | 69° | 5° | 41° | 35% | 30.16 in Hg | 6,297 ft | |||
| 05-Sep | 10:55PM | VFR | 100° | kt | 10 miles | 20° | 68° | 5° | 41° | 37% | 30.15 in Hg | 6,187 ft | |||
| 05-Sep | 10:15PM | VFR | 240° | kt | 10 miles | 24° | 75° | 5° | 41° | 29% | 30.14 in Hg | 6,677 ft | |||
| 05-Sep | 09:55PM | VFR | 240° | kt | 10 miles | 24° | 75° | 5° | 41° | 29% | 30.14 in Hg | 6,677 ft | |||
| 05-Sep | 09:35PM | VFR | 250° | kt | 10 miles | 24° | 75° | 6° | 42° | 31% | 30.14 in Hg | 6,677 ft | |||
| 05-Sep | 09:15PM | VFR | 260° | 4 kt | 10 miles | 24° | 75° | 5° | 41° | 29% | 30.13 in Hg | 6,687 ft |
Login
| Your browser is unsupported. upgrade your browser |
